Green Bay, WI (54304)

6:10 PM CDT on September 04, 2015 (GMT -0500)
Fox 11 | | Change Station
CLOSE
Current Station
Personal Weather Station
Location: Green Bay, WI
Elevation: 617 ft
Nearby Weather Stations

Elev 617 ft 44.50 °N, 88.05 °W | Updated 57 minutes ago

Mostly Cloudy
Mostly Cloudy
76.2 °F
Feels Like 78 °F
N
4.4
Wind Variable Wind from WSW
Gusts 4.8 mph

Today
High -- | Low -- °F
--% Chance of Precip.
Yesterday
High -- | Low -- °F
Precip. -- in
6:18 AM 7:23 PM
Waning Gibbous, 55% visible
Pressure 30.03 in
Visibility 9.0 miles
Clouds Scattered Clouds 3900 ft
Heat Index 78 °F
Dew Point 66 °F
Humidity 73%
Rainfall in
Snow Depth Not available.
UV 1 out of 12
Pollen 8.90 out of 12
Air Quality Not available.
Flu Activity Not available.
METAR KGRB 042253Z 06008KT 9SM SCT039 24/20 A3003 RMK AO2 SLP167 T02440200
Pressure 30.03 in
Visibility 9.0 miles
Clouds Scattered Clouds 3900 ft
Heat Index 78 °F
Dew Point 66 °F
Humidity 73%
Rainfall in
Snow Depth Not available.
UV 1 out of 12
Pollen 8.90 out of 12
Air Quality Not available.
Flu Activity Not available.
METAR KGRB 042253Z 06008KT 9SM SCT039 24/20 A3003 RMK AO2 SLP167 T02440200

10-Day Weather Forecast

×

Almanac

Astronomy

Sep. 04, 2015 Rise Set
Actual Time
Civil Twilight
Nautical Twilight
Astronomical Twilight
Moon
Length of Visible Light
Length of Day
Tomorrow will be .
, % of the Moon is Illuminated

Today's Extremes

State Highs State Lows

Community

WunderPhotos

Upload Photos

1,852,331 photos uploaded!

WunderBlogs® & News

Nearby

Air Quality

  Air Quality AQ Index Pollutant
Not available.

Snow Depth

Station Depth Elevation

Earthquake Activity

City Distance Mag. Time & Date
Minimum magnitude displayed is 2.5.

Coastal Water Temperatures

Place Temperature

Stations

Nearby Weather Stations

Station Location Temp. Windchill Dew Point Humidity Wind Precip. Elev Updated Type